Time;durP1;ratioP1;P1;durP2;ratioP2;P2;SDS_P1;SDS_P2;PMS_P1;PMS_P2;Temp;Humidity;BMP_temperature;BMP_pressure;BME280_temperature;BME280_humidity;BME280_pressure;Samples;Min_cycle;Max_cycle;Signal;HPM_P1;HPM_P2
2022/04/16 00:00:46;;;;;;;;;15.00;14.50;;;;;;;;5016883;28;45851;-61
2022/04/16 00:03:12;;;;;;;;;21.00;19.00;;;;;;;;5034163;28;45471;-60
2022/04/16 00:05:37;;;;;;;;;17.75;16.75;;;;;;;;5028590;28;45555;-60
2022/04/16 00:08:08;;;;;;;;;20.75;20.75;;;;;;;;5027421;28;45491;-60
2022/04/16 00:10:35;;;;;;;;;16.00;15.00;;;;;;;;5032548;28;46645;-61
2022/04/16 00:13:00;;;;;;;;;18.25;17.75;;;;;;;;5032679;28;45668;-62
2022/04/16 00:15:26;;;;;;;;;18.25;17.50;;;;;;;;5033956;28;45338;-62
2022/04/16 00:17:52;;;;;;;;;15.75;15.00;;;;;;;;5034800;28;45391;-61
2022/04/16 00:20:17;;;;;;;;;21.25;17.25;;;;;;;;5027990;28;46832;-62
2022/04/16 00:22:42;;;;;;;;;16.75;15.25;;;;;;;;5023138;28;45478;-60
2022/04/16 00:25:07;;;;;;;;;16.00;16.00;;;;;;;;5032966;28;45385;-59
2022/04/16 00:27:34;;;;;;;;;18.25;17.25;;;;;;;;5032650;28;45291;-61
2022/04/16 00:29:59;;;;;;;;;16.75;16.50;;;;;;;;5033862;28;45536;-61
2022/04/16 00:32:24;;;;;;;;;18.50;16.50;;;;;;;;5027435;28;45610;-61
2022/04/16 00:34:50;;;;;;;;;14.75;14.75;;;;;;;;5024023;28;45506;-60
2022/04/16 00:37:16;;;;;;;;;20.50;16.75;;;;;;;;5030368;28;45421;-60
2022/04/16 00:39:41;;;;;;;;;20.50;19.50;;;;;;;;5030853;28;46553;-61
2022/04/16 00:42:07;;;;;;;;;20.75;19.00;;;;;;;;5034087;28;45348;-60
2022/04/16 00:44:32;;;;;;;;;16.75;16.25;;;;;;;;5031732;28;45571;-60
2022/04/16 00:46:58;;;;;;;;;18.75;18.25;;;;;;;;5032191;28;45545;-60
2022/04/16 00:49:23;;;;;;;;;23.00;20.50;;;;;;;;5031763;28;47561;-61
2022/04/16 00:51:49;;;;;;;;;21.00;19.00;;;;;;;;5032124;28;45679;-60
2022/04/16 00:54:15;;;;;;;;;17.75;16.00;;;;;;;;5034352;28;45376;-60
2022/04/16 00:56:40;;;;;;;;;17.50;16.75;;;;;;;;5031798;28;45499;-60
2022/04/16 00:59:05;;;;;;;;;19.00;19.00;;;;;;;;5031397;28;46484;-60
2022/04/16 01:01:31;;;;;;;;;18.00;18.00;;;;;;;;5031619;28;45847;-60
2022/04/16 01:03:56;;;;;;;;;20.75;19.50;;;;;;;;5031980;28;45478;-60
2022/04/16 01:06:22;;;;;;;;;20.00;20.00;;;;;;;;5033191;28;45262;-60
2022/04/16 01:08:47;;;;;;;;;23.50;19.75;;;;;;;;5033238;28;46270;-61
2022/04/16 01:11:13;;;;;;;;;24.75;21.75;;;;;;;;5030577;28;45357;-61
2022/04/16 01:13:38;;;;;;;;;18.50;17.00;;;;;;;;5025166;28;45373;-61
2022/04/16 01:16:05;;;;;;;;;21.00;18.75;;;;;;;;5033077;28;45877;-60
2022/04/16 01:18:30;;;;;;;;;21.25;20.25;;;;;;;;5033050;28;47661;-60
2022/04/16 01:20:55;;;;;;;;;18.75;17.75;;;;;;;;5034646;28;45663;-60
2022/04/16 01:23:21;;;;;;;;;21.00;18.50;;;;;;;;5034948;28;45389;-60
2022/04/16 01:25:46;;;;;;;;;16.25;15.75;;;;;;;;5035021;28;45304;-61
2022/04/16 01:28:12;;;;;;;;;16.50;16.25;;;;;;;;5035014;28;45980;-60
2022/04/16 01:30:37;;;;;;;;;17.00;14.25;;;;;;;;5035188;28;45505;-60
2022/04/16 01:33:03;;;;;;;;;19.25;18.00;;;;;;;;5037840;28;45398;-59
2022/04/16 01:35:29;;;;;;;;;20.00;18.75;;;;;;;;5035113;28;45561;-60
2022/04/16 01:37:54;;;;;;;;;17.25;17.25;;;;;;;;5029829;28;45616;-59
2022/04/16 01:40:26;;;;;;;;;19.00;17.25;;;;;;;;5023097;28;45519;-61
2022/04/16 01:42:55;;;;;;;;;20.00;18.50;;;;;;;;5034890;28;45464;-61
2022/04/16 01:45:21;;;;;;;;;20.50;19.25;;;;;;;;5032065;28;45473;-61
2022/04/16 01:47:46;;;;;;;;;20.25;18.50;;;;;;;;5033968;28;46748;-60
2022/04/16 01:50:12;;;;;;;;;20.50;20.50;;;;;;;;5034312;28;45396;-61
2022/04/16 01:52:37;;;;;;;;;27.50;21.50;;;;;;;;5034832;28;45317;-60
2022/04/16 01:55:03;;;;;;;;;20.00;18.50;;;;;;;;5034024;28;45431;-60
2022/04/16 01:57:28;;;;;;;;;15.00;14.00;;;;;;;;5036200;28;46429;-60
2022/04/16 01:59:54;;;;;;;;;18.50;18.50;;;;;;;;5032560;28;45258;-60
2022/04/16 02:02:19;;;;;;;;;19.50;18.25;;;;;;;;5030629;28;45472;-60
2022/04/16 02:04:45;;;;;;;;;19.50;18.25;;;;;;;;5035148;28;45452;-61
2022/04/16 02:07:10;;;;;;;;;17.00;16.00;;;;;;;;5034860;28;46246;-60
2022/04/16 02:09:36;;;;;;;;;20.25;19.50;;;;;;;;5034733;28;45441;-60
2022/04/16 02:12:01;;;;;;;;;22.25;21.25;;;;;;;;5037128;28;45401;-60
2022/04/16 02:14:26;;;;;;;;;22.50;19.25;;;;;;;;5034296;28;45372;-60
2022/04/16 02:16:52;;;;;;;;;17.25;16.00;;;;;;;;5034730;28;46210;-60
2022/04/16 02:19:17;;;;;;;;;21.00;20.00;;;;;;;;5034585;28;45492;-60
2022/04/16 02:21:43;;;;;;;;;21.75;18.25;;;;;;;;5033888;28;45437;-60
2022/04/16 02:24:08;;;;;;;;;17.00;15.50;;;;;;;;5036903;28;45389;-60
2022/04/16 02:26:33;;;;;;;;;21.00;21.00;;;;;;;;5029623;28;47848;-60
2022/04/16 02:28:59;;;;;;;;;24.25;20.50;;;;;;;;5027095;28;45509;-60
2022/04/16 02:31:25;;;;;;;;;22.25;19.75;;;;;;;;5034507;28;45466;-60
2022/04/16 02:33:50;;;;;;;;;21.00;18.25;;;;;;;;5034895;28;45531;-60
2022/04/16 02:36:16;;;;;;;;;22.50;20.00;;;;;;;;5036908;28;45629;-60
2022/04/16 02:38:41;;;;;;;;;24.75;22.25;;;;;;;;5032936;28;45408;-60
2022/04/16 02:41:07;;;;;;;;;25.00;24.00;;;;;;;;5034489;28;45759;-60
2022/04/16 02:43:32;;;;;;;;;22.00;20.00;;;;;;;;5033141;28;45420;-60
2022/04/16 02:48:41;;;;;;;;;22.25;21.00;;;;;;;;5034326;28;45460;-60
2022/04/16 02:51:06;;;;;;;;;26.00;23.00;;;;;;;;5036465;28;45571;-60
2022/04/16 02:53:32;;;;;;;;;17.75;17.50;;;;;;;;5030928;28;45609;-60
2022/04/16 02:55:57;;;;;;;;;24.25;22.50;;;;;;;;5028200;28;46454;-59
2022/04/16 02:58:22;;;;;;;;;24.75;21.00;;;;;;;;5034135;28;45443;-59
2022/04/16 03:00:48;;;;;;;;;23.75;22.25;;;;;;;;5034581;28;45385;-60
2022/04/16 03:03:14;;;;;;;;;21.50;21.25;;;;;;;;5036271;28;45483;-60
2022/04/16 03:05:39;;;;;;;;;26.50;24.50;;;;;;;;5029215;28;47473;-60
2022/04/16 03:08:10;;;;;;;;;27.25;27.00;;;;;;;;5027400;28;45500;-60
2022/04/16 03:10:35;;;;;;;;;24.75;23.75;;;;;;;;5034241;28;45529;-60
2022/04/16 03:13:00;;;;;;;;;25.50;24.25;;;;;;;;5032799;28;45564;-59
2022/04/16 03:18:10;;;;;;;;;32.75;28.00;;;;;;;;5035426;28;45380;-60
2022/04/16 03:20:37;;;;;;;;;31.25;30.00;;;;;;;;5033932;28;45569;-60
2022/04/16 03:23:02;;;;;;;;;29.00;28.75;;;;;;;;5033813;28;45367;-60
2022/04/16 03:25:28;;;;;;;;;25.25;22.25;;;;;;;;5032231;28;49086;-60
2022/04/16 03:27:54;;;;;;;;;26.50;26.00;;;;;;;;5033570;28;45401;-61
2022/04/16 03:30:19;;;;;;;;;27.50;26.25;;;;;;;;5035556;28;45273;-61
2022/04/16 03:32:47;;;;;;;;;28.00;28.00;;;;;;;;5034365;28;45303;-60
2022/04/16 03:35:12;;;;;;;;;28.50;26.25;;;;;;;;5033738;28;46061;-60
2022/04/16 03:37:38;;;;;;;;;32.50;30.25;;;;;;;;5033556;28;45305;-60
2022/04/16 03:40:04;;;;;;;;;30.50;29.75;;;;;;;;5033592;28;45439;-60
2022/04/16 03:42:29;;;;;;;;;27.50;27.50;;;;;;;;5034023;28;45350;-60
2022/04/16 03:44:54;;;;;;;;;34.00;26.75;;;;;;;;5034862;28;45504;-60
2022/04/16 03:47:19;;;;;;;;;28.00;27.25;;;;;;;;5033189;28;45418;-60
2022/04/16 03:49:44;;;;;;;;;32.75;26.50;;;;;;;;5033822;28;45473;-60
2022/04/16 03:52:10;;;;;;;;;32.75;31.25;;;;;;;;5033435;28;45522;-60
2022/04/16 04:00:05;;;;;;;;;33.00;31.00;;;;;;;;5033972;28;45416;-60
2022/04/16 04:02:31;;;;;;;;;29.25;28.00;;;;;;;;5033024;28;45476;-60
2022/04/16 04:04:57;;;;;;;;;30.00;26.25;;;;;;;;5033039;28;46419;-60
2022/04/16 04:07:23;;;;;;;;;30.25;27.75;;;;;;;;5032905;28;45853;-60
2022/04/16 04:09:48;;;;;;;;;33.00;29.25;;;;;;;;5033474;28;45897;-60
2022/04/16 04:12:14;;;;;;;;;32.00;31.00;;;;;;;;5035584;28;45349;-60
2022/04/16 04:14:41;;;;;;;;;30.50;29.25;;;;;;;;5032821;28;46664;-60
2022/04/16 04:17:07;;;;;;;;;31.75;31.00;;;;;;;;5028380;28;45401;-60
2022/04/16 04:19:34;;;;;;;;;32.00;27.75;;;;;;;;5020571;28;45535;-60
2022/04/16 04:21:59;;;;;;;;;37.75;33.50;;;;;;;;5032890;28;45383;-60
2022/04/16 04:24:24;;;;;;;;;34.25;31.50;;;;;;;;5030319;28;47933;-60
2022/04/16 04:26:53;;;;;;;;;33.75;29.50;;;;;;;;5030232;28;45449;-59
2022/04/16 04:29:18;;;;;;;;;29.50;28.50;;;;;;;;5028432;28;45719;-60
2022/04/16 04:31:43;;;;;;;;;31.25;27.50;;;;;;;;5033019;28;45404;-60
2022/04/16 04:34:09;;;;;;;;;34.75;32.75;;;;;;;;5031609;28;45561;-60
2022/04/16 04:36:34;;;;;;;;;34.25;32.25;;;;;;;;5033056;28;45471;-60
2022/04/16 04:38:59;;;;;;;;;34.25;31.00;;;;;;;;5034993;28;45397;-60
2022/04/16 04:41:24;;;;;;;;;36.25;33.00;;;;;;;;5032795;28;45761;-60
2022/04/16 04:43:49;;;;;;;;;31.75;30.75;;;;;;;;5028790;28;47700;-60
2022/04/16 04:46:14;;;;;;;;;35.75;31.75;;;;;;;;5038430;28;46249;-60
2022/04/16 04:48:40;;;;;;;;;30.75;27.50;;;;;;;;5036571;28;45301;-60
2022/04/16 04:51:05;;;;;;;;;35.50;32.00;;;;;;;;5038363;28;45472;-60
2022/04/16 04:53:30;;;;;;;;;33.75;29.25;;;;;;;;5031336;28;47685;-60
2022/04/16 04:55:55;;;;;;;;;30.00;28.75;;;;;;;;5028643;28;45401;-60
2022/04/16 04:58:21;;;;;;;;;27.50;27.50;;;;;;;;5036197;28;45250;-61
2022/04/16 05:00:46;;;;;;;;;34.25;31.25;;;;;;;;5036465;28;45432;-60
2022/04/16 05:03:11;;;;;;;;;33.25;31.50;;;;;;;;5037801;28;46261;-60
2022/04/16 05:05:36;;;;;;;;;35.75;31.50;;;;;;;;5035955;28;45384;-60
2022/04/16 05:08:02;;;;;;;;;36.50;34.00;;;;;;;;5031272;28;45496;-60
2022/04/16 05:10:27;;;;;;;;;36.75;31.75;;;;;;;;5024510;28;45451;-60
2022/04/16 05:12:55;;;;;;;;;34.75;32.00;;;;;;;;5034414;28;46083;-60
2022/04/16 05:15:21;;;;;;;;;35.00;33.75;;;;;;;;5037012;28;45384;-60
2022/04/16 05:17:46;;;;;;;;;37.75;34.25;;;;;;;;5036630;28;45478;-60
2022/04/16 05:20:11;;;;;;;;;35.50;33.00;;;;;;;;5035801;28;45475;-60
2022/04/16 05:22:36;;;;;;;;;43.75;36.25;;;;;;;;5035599;28;46438;-60
2022/04/16 05:25:02;;;;;;;;;37.00;33.25;;;;;;;;5035563;28;45333;-60
2022/04/16 05:27:30;;;;;;;;;44.50;37.75;;;;;;;;5036143;28;45401;-60
2022/04/16 05:30:11;;;;;;;;;40.50;34.50;;;;;;;;5037447;28;45467;-59
2022/04/16 05:32:37;;;;;;;;;38.75;35.50;;;;;;;;5035278;28;45535;-61
2022/04/16 05:35:06;;;;;;;;;41.25;35.00;;;;;;;;5035396;28;46097;-60
2022/04/16 05:37:31;;;;;;;;;37.75;34.00;;;;;;;;5035639;28;45539;-60
2022/04/16 05:39:56;;;;;;;;;36.00;33.75;;;;;;;;5032418;28;45433;-63
2022/04/16 05:42:21;;;;;;;;;34.75;33.25;;;;;;;;5036849;28;46095;-61
2022/04/16 05:44:47;;;;;;;;;41.25;36.00;;;;;;;;5036175;28;45241;-60
2022/04/16 05:47:12;;;;;;;;;38.25;35.00;;;;;;;;5035612;28;45349;-61
2022/04/16 05:49:37;;;;;;;;;39.00;34.75;;;;;;;;5035315;28;45559;-61
2022/04/16 05:52:03;;;;;;;;;44.75;34.50;;;;;;;;5032613;28;48970;-61
2022/04/16 05:54:29;;;;;;;;;47.25;37.50;;;;;;;;5035617;28;45444;-61
2022/04/16 05:56:55;;;;;;;;;45.00;36.75;;;;;;;;5036010;28;45458;-60
2022/04/16 05:59:22;;;;;;;;;42.25;36.00;;;;;;;;5034932;28;45497;-60
2022/04/16 06:01:47;;;;;;;;;44.00;36.00;;;;;;;;5034906;28;45824;-60
2022/04/16 06:04:13;;;;;;;;;39.50;35.25;;;;;;;;5034688;28;45407;-60
2022/04/16 06:06:38;;;;;;;;;45.00;37.25;;;;;;;;5035290;28;45349;-60
2022/04/16 06:09:03;;;;;;;;;40.75;35.00;;;;;;;;5037102;28;45342;-60
2022/04/16 06:11:30;;;;;;;;;35.25;31.50;;;;;;;;5030223;28;45971;-61
2022/04/16 06:13:55;;;;;;;;;44.50;35.75;;;;;;;;5025096;28;45496;-60
2022/04/16 06:16:20;;;;;;;;;34.25;32.25;;;;;;;;5023846;28;45491;-60
2022/04/16 06:18:45;;;;;;;;;40.75;34.25;;;;;;;;5035059;28;45494;-60
2022/04/16 06:21:11;;;;;;;;;45.50;35.00;;;;;;;;5035563;28;46677;-60
2022/04/16 06:23:36;;;;;;;;;45.25;38.25;;;;;;;;5034407;28;45262;-62
2022/04/16 06:26:02;;;;;;;;;40.50;33.25;;;;;;;;5034961;28;45348;-61
2022/04/16 06:28:27;;;;;;;;;39.25;33.00;;;;;;;;5033475;28;45322;-61
2022/04/16 06:30:52;;;;;;;;;38.25;32.50;;;;;;;;5033228;28;46829;-61
2022/04/16 06:33:17;;;;;;;;;48.25;37.25;;;;;;;;5032294;28;46295;-62
2022/04/16 06:35:42;;;;;;;;;37.25;32.25;;;;;;;;5032199;28;45475;-62
2022/04/16 06:38:08;;;;;;;;;36.50;32.25;;;;;;;;5028806;28;45345;-62
2022/04/16 06:40:33;;;;;;;;;33.75;31.00;;;;;;;;5033454;28;46382;-62
2022/04/16 06:42:58;;;;;;;;;45.25;37.25;;;;;;;;5031459;28;45444;-61
2022/04/16 06:45:23;;;;;;;;;45.50;39.25;;;;;;;;5035674;28;45509;-61
2022/04/16 06:47:49;;;;;;;;;45.25;37.75;;;;;;;;5030790;28;45855;-61
2022/04/16 06:50:14;;;;;;;;;46.75;38.50;;;;;;;;5029212;28;46061;-61
2022/04/16 06:52:39;;;;;;;;;39.50;34.25;;;;;;;;5034266;28;45393;-60
2022/04/16 06:55:05;;;;;;;;;38.75;35.50;;;;;;;;5034344;28;45393;-60
2022/04/16 06:57:30;;;;;;;;;46.00;37.50;;;;;;;;5034441;28;45258;-59
2022/04/16 06:59:55;;;;;;;;;36.75;33.25;;;;;;;;5035920;28;46705;-60
2022/04/16 07:02:20;;;;;;;;;38.75;34.50;;;;;;;;5033931;28;45376;-60
2022/04/16 07:04:46;;;;;;;;;43.50;37.00;;;;;;;;5029694;28;45479;-60
2022/04/16 07:07:11;;;;;;;;;38.25;33.75;;;;;;;;5024041;28;45451;-61
2022/04/16 07:09:40;;;;;;;;;28.75;28.75;;;;;;;;5033947;28;46220;-61
2022/04/16 07:12:07;;;;;;;;;38.00;34.00;;;;;;;;5034728;28;45372;-61
2022/04/16 07:14:33;;;;;;;;;39.00;35.25;;;;;;;;5034267;28;45439;-60
2022/04/16 07:16:58;;;;;;;;;36.75;34.00;;;;;;;;5033433;28;45534;-59
2022/04/16 07:19:23;;;;;;;;;38.25;34.75;;;;;;;;5033503;28;46183;-60
2022/04/16 07:21:48;;;;;;;;;41.50;35.00;;;;;;;;5032681;28;45513;-60
2022/04/16 07:24:14;;;;;;;;;35.50;32.00;;;;;;;;5035573;28;45563;-60
2022/04/16 07:26:39;;;;;;;;;43.25;35.75;;;;;;;;5033545;28;45531;-60
2022/04/16 07:29:04;;;;;;;;;34.25;31.00;;;;;;;;5032818;28;45499;-60
2022/04/16 07:31:29;;;;;;;;;42.50;35.25;;;;;;;;5032366;28;45385;-62
2022/04/16 07:33:54;;;;;;;;;46.50;38.75;;;;;;;;5033009;28;45815;-61
2022/04/16 07:36:20;;;;;;;;;41.25;35.25;;;;;;;;5031038;28;45651;-62
2022/04/16 07:38:45;;;;;;;;;42.50;34.75;;;;;;;;5032408;28;46359;-61
2022/04/16 07:41:10;;;;;;;;;45.00;33.75;;;;;;;;5033121;28;45396;-61
2022/04/16 07:43:36;;;;;;;;;45.75;34.50;;;;;;;;5033360;28;45308;-61
2022/04/16 07:46:01;;;;;;;;;38.00;34.25;;;;;;;;5033630;28;45422;-61
2022/04/16 07:48:26;;;;;;;;;46.00;38.00;;;;;;;;5033657;28;46836;-61
2022/04/16 07:50:51;;;;;;;;;37.25;33.25;;;;;;;;5030267;28;45532;-61
2022/04/16 07:53:16;;;;;;;;;38.75;34.50;;;;;;;;5028494;28;45317;-62
2022/04/16 07:55:42;;;;;;;;;41.25;36.00;;;;;;;;5033426;28;45360;-61
2022/04/16 07:58:07;;;;;;;;;40.50;35.00;;;;;;;;5033076;28;45432;-62
2022/04/16 08:00:32;;;;;;;;;46.25;36.50;;;;;;;;5033235;28;45264;-62
2022/04/16 08:02:57;;;;;;;;;46.25;40.00;;;;;;;;5035536;28;45333;-61
2022/04/16 08:05:22;;;;;;;;;39.50;34.00;;;;;;;;5032957;28;45452;-62
2022/04/16 08:07:49;;;;;;;;;43.50;37.75;;;;;;;;5013300;28;48603;-61
2022/04/16 08:10:14;;;;;;;;;40.50;34.00;;;;;;;;5020955;28;45705;-62
2022/04/16 08:12:40;;;;;;;;;37.25;34.00;;;;;;;;5031652;28;45383;-61
2022/04/16 08:15:06;;;;;;;;;46.50;36.25;;;;;;;;5033980;28;45339;-61
2022/04/16 08:17:32;;;;;;;;;36.00;33.50;;;;;;;;5027743;28;48009;-62
2022/04/16 08:19:57;;;;;;;;;41.25;35.00;;;;;;;;5025996;28;46604;-61
2022/04/16 08:22:22;;;;;;;;;39.00;35.25;;;;;;;;5036723;28;45336;-61
2022/04/16 08:25:43;;;;;;;;;44.75;37.00;;;;;;;;5032696;28;45477;-61
2022/04/16 08:27:40;;;;;;;;;44.00;37.75;;;;;;;;5034259;28;46091;-61
2022/04/16 08:30:07;;;;;;;;;40.75;35.75;;;;;;;;5023735;28;45247;-61
2022/04/16 08:32:35;;;;;;;;;46.50;38.00;;;;;;;;5029613;28;45559;-61
2022/04/16 08:35:01;;;;;;;;;44.75;37.50;;;;;;;;5035283;28;45404;-61
2022/04/16 08:37:26;;;;;;;;;32.75;31.75;;;;;;;;5022871;28;45695;-61
2022/04/16 08:39:51;;;;;;;;;32.75;30.25;;;;;;;;5028759;28;45604;-62
2022/04/16 08:42:17;;;;;;;;;46.25;37.25;;;;;;;;5031016;28;45334;-61
2022/04/16 08:44:42;;;;;;;;;37.75;34.75;;;;;;;;5020794;28;45342;-62
2022/04/16 08:47:08;;;;;;;;;43.00;36.25;;;;;;;;5035022;28;45492;-62
2022/04/16 08:49:34;;;;;;;;;42.50;35.50;;;;;;;;5022816;28;45384;-67
2022/04/16 08:51:59;;;;;;;;;43.75;36.25;;;;;;;;5026503;28;45372;-62
2022/04/16 08:54:25;;;;;;;;;39.75;35.50;;;;;;;;5023612;28;45427;-63
2022/04/16 08:56:50;;;;;;;;;44.50;37.25;;;;;;;;5019612;28;45392;-63
2022/04/16 08:59:16;;;;;;;;;39.00;32.75;;;;;;;;5033785;28;45627;-62
2022/04/16 09:01:41;;;;;;;;;45.00;37.50;;;;;;;;5033647;28;45374;-61
2022/04/16 09:04:06;;;;;;;;;37.75;34.00;;;;;;;;5030825;28;45412;-61
2022/04/16 09:06:31;;;;;;;;;41.75;34.75;;;;;;;;5040008;28;45780;-61
2022/04/16 09:09:07;;;;;;;;;36.00;34.75;;;;;;;;5036055;28;45350;-61
2022/04/16 09:11:32;;;;;;;;;43.00;37.50;;;;;;;;5036050;28;45341;-61
2022/04/16 09:13:58;;;;;;;;;39.25;33.50;;;;;;;;5033542;28;45526;-62
2022/04/16 09:16:23;;;;;;;;;32.00;30.25;;;;;;;;5035609;28;46083;-62
2022/04/16 09:18:52;;;;;;;;;38.00;34.00;;;;;;;;5031105;28;46248;-63
2022/04/16 09:21:23;;;;;;;;;31.00;28.50;;;;;;;;5026838;28;45389;-62
2022/04/16 09:23:51;;;;;;;;;29.00;29.00;;;;;;;;5034921;28;45444;-63
2022/04/16 09:26:33;;;;;;;;;35.25;30.00;;;;;;;;5018639;28;45914;-62
2022/04/16 09:29:04;;;;;;;;;27.50;23.75;;;;;;;;5033754;28;45847;-62
2022/04/16 09:31:31;;;;;;;;;29.50;28.50;;;;;;;;5051230;28;45408;-62
2022/04/16 09:33:56;;;;;;;;;28.00;26.75;;;;;;;;5035343;28;45433;-63
2022/04/16 09:36:22;;;;;;;;;27.75;25.00;;;;;;;;5030993;28;47472;-62
2022/04/16 09:38:48;;;;;;;;;25.75;24.75;;;;;;;;5022435;28;45460;-63
2022/04/16 09:41:14;;;;;;;;;24.75;24.25;;;;;;;;5035868;28;45163;-63
2022/04/16 09:43:39;;;;;;;;;26.00;25.25;;;;;;;;5037400;28;45527;-63
2022/04/16 09:46:09;;;;;;;;;24.25;24.25;;;;;;;;5029146;28;46772;-65
2022/04/16 09:48:35;;;;;;;;;32.75;28.50;;;;;;;;5028808;28;45369;-60
2022/04/16 09:51:00;;;;;;;;;21.75;20.75;;;;;;;;5034258;28;45655;-60
2022/04/16 09:53:26;;;;;;;;;24.00;23.00;;;;;;;;5033897;28;45363;-61
2022/04/16 09:55:51;;;;;;;;;24.50;23.25;;;;;;;;5036556;28;45429;-61
2022/04/16 09:58:22;;;;;;;;;30.25;29.50;;;;;;;;5035949;28;45436;-61
2022/04/16 10:00:49;;;;;;;;;30.50;28.75;;;;;;;;5035125;28;45400;-60
2022/04/16 10:03:15;;;;;;;;;27.00;27.00;;;;;;;;5034915;28;45408;-61
2022/04/16 10:05:41;;;;;;;;;29.50;28.25;;;;;;;;5033776;28;45311;-61
2022/04/16 10:08:07;;;;;;;;;24.00;24.00;;;;;;;;5034967;28;45297;-62
2022/04/16 10:10:40;;;;;;;;;39.75;33.50;;;;;;;;5032523;28;45267;-61
2022/04/16 10:13:09;;;;;;;;;24.75;24.75;;;;;;;;5032510;28;45329;-61
2022/04/16 10:15:43;;;;;;;;;18.50;18.50;;;;;;;;5034754;28;45598;-60
2022/04/16 10:18:10;;;;;;;;;17.00;17.00;;;;;;;;5033557;28;45495;-60
2022/04/16 10:20:35;;;;;;;;;14.25;13.00;;;;;;;;5035074;28;45518;-60
2022/04/16 10:23:03;;;;;;;;;19.50;19.50;;;;;;;;5032861;28;45564;-60
2022/04/16 10:25:29;;;;;;;;;16.00;13.75;;;;;;;;5036845;28;45979;-60
2022/04/16 10:27:59;;;;;;;;;19.50;16.75;;;;;;;;5034780;28;45483;-60
2022/04/16 10:30:34;;;;;;;;;12.50;12.00;;;;;;;;5034805;28;45562;-60
2022/04/16 10:33:03;;;;;;;;;13.75;13.75;;;;;;;;5034623;28;45465;-60
2022/04/16 10:35:28;;;;;;;;;15.75;14.50;;;;;;;;5034352;28;45736;-60
2022/04/16 10:37:54;;;;;;;;;12.25;12.00;;;;;;;;5035799;28;45349;-61
2022/04/16 10:40:20;;;;;;;;;26.25;25.00;;;;;;;;5035554;28;45396;-60
2022/04/16 10:42:57;;;;;;;;;16.50;16.50;;;;;;;;5029067;28;45427;-61
2022/04/16 10:45:22;;;;;;;;;16.75;16.00;;;;;;;;5025878;28;45836;-60
2022/04/16 10:47:49;;;;;;;;;21.25;19.25;;;;;;;;5034241;28;45468;-61
2022/04/16 10:50:15;;;;;;;;;18.25;18.25;;;;;;;;5032368;28;45495;-60
2022/04/16 10:52:51;;;;;;;;;18.75;18.75;;;;;;;;5036061;28;45494;-61
2022/04/16 10:55:16;;;;;;;;;19.50;19.50;;;;;;;;5031737;28;47722;-60
2022/04/16 10:57:42;;;;;;;;;15.00;15.00;;;;;;;;5034356;28;45289;-63
2022/04/16 11:00:14;;;;;;;;;13.50;13.50;;;;;;;;5034272;28;45454;-73
2022/04/16 11:02:39;;;;;;;;;15.25;14.25;;;;;;;;5031440;28;45176;-63
2022/04/16 11:05:05;;;;;;;;;16.25;14.25;;;;;;;;5033985;28;45430;-64
2022/04/16 11:07:35;;;;;;;;;14.75;13.25;;;;;;;;5036352;28;45436;-63
2022/04/16 11:10:00;;;;;;;;;8.25;8.25;;;;;;;;5034309;28;45346;-65
2022/04/16 11:12:26;;;;;;;;;15.25;14.25;;;;;;;;5033965;28;45417;-64
2022/04/16 11:14:52;;;;;;;;;11.00;10.00;;;;;;;;5032627;28;47563;-65
2022/04/16 11:17:19;;;;;;;;;13.25;12.75;;;;;;;;5031910;28;45358;-64
2022/04/16 11:19:44;;;;;;;;;11.25;11.25;;;;;;;;5027183;28;45424;-65
2022/04/16 11:22:10;;;;;;;;;12.50;12.00;;;;;;;;5032090;28;45528;-64
2022/04/16 11:24:35;;;;;;;;;7.25;7.25;;;;;;;;5033521;28;45400;-64
2022/04/16 11:35:13;;;;;;;;;9.50;9.50;;;;;;;;5033650;28;45514;-64
2022/04/16 11:37:38;;;;;;;;;8.00;7.50;;;;;;;;5035603;28;45399;-65
2022/04/16 11:40:08;;;;;;;;;14.00;13.75;;;;;;;;5028813;28;45334;-64
2022/04/16 11:42:33;;;;;;;;;9.50;9.50;;;;;;;;5026623;28;45563;-64
2022/04/16 11:44:58;;;;;;;;;10.25;8.75;;;;;;;;5033009;28;46170;-64
2022/04/16 11:47:25;;;;;;;;;6.75;6.00;;;;;;;;5032368;28;46491;-64
2022/04/16 11:49:55;;;;;;;;;7.00;7.00;;;;;;;;5031051;28;45301;-65
2022/04/16 11:52:24;;;;;;;;;8.00;7.50;;;;;;;;5033766;28;45502;-64
2022/04/16 11:55:04;;;;;;;;;10.00;8.00;;;;;;;;5032814;28;45518;-64
2022/04/16 11:57:29;;;;;;;;;4.00;4.00;;;;;;;;5033222;28;45516;-65
2022/04/16 11:59:58;;;;;;;;;4.00;4.00;;;;;;;;5032488;28;45518;-65
2022/04/16 12:02:31;;;;;;;;;0.00;0.00;;;;;;;;5032336;28;45528;-64
2022/04/16 12:05:06;;;;;;;;;3.00;3.00;;;;;;;;5034402;28;45840;-63
2022/04/16 12:07:31;;;;;;;;;4.00;4.00;;;;;;;;5033409;28;45320;-62
2022/04/16 12:09:56;;;;;;;;;4.25;4.25;;;;;;;;5033154;28;45321;-63
2022/04/16 12:12:22;;;;;;;;;3.50;3.50;;;;;;;;5032580;28;45460;-63
2022/04/16 12:14:53;;;;;;;;;1.50;1.50;;;;;;;;5032812;28;46407;-63
2022/04/16 12:17:21;;;;;;;;;2.00;2.00;;;;;;;;5016907;28;45483;-63
2022/04/16 12:19:46;;;;;;;;;2.00;1.25;;;;;;;;5031508;28;45396;-63
2022/04/16 12:22:17;;;;;;;;;2.00;2.00;;;;;;;;5033324;28;45765;-62
2022/04/16 12:24:42;;;;;;;;;9.75;6.00;;;;;;;;5033006;28;45475;-63
2022/04/16 12:27:07;;;;;;;;;3.50;3.50;;;;;;;;5033153;28;45941;-63
2022/04/16 12:29:33;;;;;;;;;2.00;2.00;;;;;;;;5033148;28;45916;-63
2022/04/16 12:31:59;;;;;;;;;2.00;2.00;;;;;;;;5034639;28;45391;-63
2022/04/16 12:34:25;;;;;;;;;2.25;2.25;;;;;;;;5032932;28;45753;-63
2022/04/16 12:36:50;;;;;;;;;3.25;3.25;;;;;;;;5028438;28;45481;-63
2022/04/16 12:39:16;;;;;;;;;5.00;5.00;;;;;;;;5024109;28;45297;-63
2022/04/16 12:41:41;;;;;;;;;3.50;3.50;;;;;;;;5033264;28;45483;-63
2022/04/16 12:44:06;;;;;;;;;5.75;5.75;;;;;;;;5033432;28;46093;-63
2022/04/16 12:46:31;;;;;;;;;7.00;7.00;;;;;;;;5030511;28;45503;-63
2022/04/16 12:48:57;;;;;;;;;6.00;4.50;;;;;;;;5029435;28;45309;-63
2022/04/16 12:51:23;;;;;;;;;5.25;5.00;;;;;;;;5028267;28;45525;-63
2022/04/16 12:53:48;;;;;;;;;5.25;4.25;;;;;;;;5019546;28;46530;-63
2022/04/16 12:56:13;;;;;;;;;6.00;6.00;;;;;;;;5032865;28;45369;-63
2022/04/16 12:58:38;;;;;;;;;2.50;2.50;;;;;;;;5033768;28;45305;-63
2022/04/16 13:01:03;;;;;;;;;3.50;3.50;;;;;;;;5031351;28;45451;-63
2022/04/16 13:03:29;;;;;;;;;3.00;3.00;;;;;;;;5027937;28;46352;-63
2022/04/16 13:05:54;;;;;;;;;4.25;4.25;;;;;;;;5024733;28;45344;-63
2022/04/16 13:08:19;;;;;;;;;2.00;2.00;;;;;;;;5036603;28;45397;-63
2022/04/16 13:10:45;;;;;;;;;5.50;5.50;;;;;;;;5034190;28;45356;-63
2022/04/16 13:13:10;;;;;;;;;3.75;3.75;;;;;;;;5035713;28;46228;-64
2022/04/16 13:15:35;;;;;;;;;4.00;3.50;;;;;;;;5036070;28;45414;-63
2022/04/16 13:18:00;;;;;;;;;6.50;5.50;;;;;;;;5036028;28;45411;-63
2022/04/16 13:20:26;;;;;;;;;6.50;6.50;;;;;;;;5033440;28;45497;-63
2022/04/16 13:22:51;;;;;;;;;4.00;4.00;;;;;;;;5037774;28;45329;-63
2022/04/16 13:25:16;;;;;;;;;3.50;3.50;;;;;;;;5034742;28;45448;-63
2022/04/16 13:27:41;;;;;;;;;3.50;3.50;;;;;;;;5029619;28;45368;-63
2022/04/16 13:30:07;;;;;;;;;3.25;3.25;;;;;;;;5025015;28;45380;-63
2022/04/16 13:32:32;;;;;;;;;4.00;3.75;;;;;;;;5035585;28;45622;-63
2022/04/16 13:34:57;;;;;;;;;2.00;2.00;;;;;;;;5017073;28;45351;-63
2022/04/16 13:37:23;;;;;;;;;2.50;2.50;;;;;;;;5032279;28;45628;-63
2022/04/16 13:42:32;;;;;;;;;4.75;4.75;;;;;;;;5035269;28;45807;-63
2022/04/16 13:44:58;;;;;;;;;6.50;4.75;;;;;;;;5035628;28;45371;-62
2022/04/16 13:47:24;;;;;;;;;5.50;4.00;;;;;;;;5034834;28;45414;-63
2022/04/16 13:49:49;;;;;;;;;3.00;3.00;;;;;;;;5037804;28;45478;-64
2022/04/16 13:52:15;;;;;;;;;3.75;3.75;;;;;;;;5032457;28;48440;-63
2022/04/16 13:54:41;;;;;;;;;2.75;2.75;;;;;;;;5030872;28;46188;-63
2022/04/16 13:57:08;;;;;;;;;2.75;1.50;;;;;;;;5035275;28;45340;-63
2022/04/16 13:59:34;;;;;;;;;3.00;2.00;;;;;;;;5035506;28;45486;-63
2022/04/16 14:01:59;;;;;;;;;1.75;1.75;;;;;;;;5051559;28;47204;-63
2022/04/16 14:04:24;;;;;;;;;3.00;3.00;;;;;;;;5036676;28;45475;-63
2022/04/16 14:06:49;;;;;;;;;1.25;1.25;;;;;;;;5035386;28;45413;-63
2022/04/16 14:09:15;;;;;;;;;0.50;0.50;;;;;;;;5035239;28;45354;-63
2022/04/16 14:11:41;;;;;;;;;3.00;3.00;;;;;;;;5035237;28;45854;-63
2022/04/16 14:14:07;;;;;;;;;3.00;3.00;;;;;;;;5032913;28;45203;-63
2022/04/16 14:16:33;;;;;;;;;3.75;3.75;;;;;;;;5036331;28;45383;-63
2022/04/16 14:18:58;;;;;;;;;3.25;3.00;;;;;;;;5034140;28;45448;-63
2022/04/16 14:21:23;;;;;;;;;2.75;2.75;;;;;;;;5034816;28;45350;-63
2022/04/16 14:23:49;;;;;;;;;2.00;2.00;;;;;;;;5034960;28;45420;-63
2022/04/16 14:26:14;;;;;;;;;3.50;3.50;;;;;;;;5035095;28;45349;-63
2022/04/16 14:28:40;;;;;;;;;3.00;3.00;;;;;;;;5036750;28;45410;-63
2022/04/16 14:31:06;;;;;;;;;3.00;3.00;;;;;;;;5034649;28;46512;-63
2022/04/16 14:33:35;;;;;;;;;2.00;2.00;;;;;;;;5034741;28;45521;-63
2022/04/16 14:36:03;;;;;;;;;5.75;5.00;;;;;;;;5034748;28;45499;-63
2022/04/16 14:38:29;;;;;;;;;5.00;5.00;;;;;;;;5034874;28;45388;-63